createdAt,value
2023-02-25T00:00:00.876Z,11.30
2023-02-25T00:02:33.502Z,11.40
2023-02-25T00:05:07.259Z,12.50
2023-02-25T00:07:40.314Z,11.40
2023-02-25T00:10:15.623Z,12.70
2023-02-25T00:12:47.883Z,13.70
2023-02-25T00:15:20.328Z,13.50
2023-02-25T00:17:52.702Z,13.20
2023-02-25T00:20:24.897Z,13.20
2023-02-25T00:22:57.913Z,12.20
2023-02-25T00:25:30.075Z,14.70
2023-02-25T00:28:05.450Z,13.80
2023-02-25T00:30:39.412Z,12.10
2023-02-25T00:33:12.241Z,11.60
2023-02-25T00:35:44.534Z,9.30
2023-02-25T00:38:16.574Z,10.20
2023-02-25T00:40:51.305Z,12.00
2023-02-25T00:43:23.426Z,11.80
2023-02-25T00:45:55.593Z,17.60
2023-02-25T00:48:27.809Z,13.80
2023-02-25T00:51:08.042Z,11.80
2023-02-25T00:53:41.498Z,12.20
2023-02-25T00:56:16.844Z,12.40
2023-02-25T01:01:23.285Z,11.20
2023-02-25T01:03:57.452Z,12.50
2023-02-25T01:06:32.734Z,10.70
2023-02-25T01:09:07.858Z,11.90
2023-02-25T01:11:40.106Z,11.60
2023-02-25T01:14:16.703Z,11.20
2023-02-25T01:16:50.231Z,13.30
2023-02-25T01:19:24.542Z,16.40
2023-02-25T01:21:58.611Z,14.80
2023-02-25T01:24:33.249Z,16.20
2023-02-25T01:27:06.935Z,12.90
2023-02-25T01:29:42.231Z,13.10
2023-02-25T01:32:15.981Z,13.90
2023-02-25T01:34:48.145Z,12.00
2023-02-25T01:37:20.372Z,12.50
2023-02-25T01:39:54.344Z,12.50
2023-02-25T01:42:26.534Z,11.60
2023-02-25T01:45:25.542Z,13.10
2023-02-25T01:48:02.870Z,12.80
2023-02-25T01:50:42.628Z,12.70
2023-02-25T01:53:15.705Z,15.10
2023-02-25T01:55:48.212Z,15.80
2023-02-25T01:58:21.105Z,12.00
2023-02-25T02:00:55.676Z,18.00
2023-02-25T02:03:33.287Z,14.60
2023-02-25T02:06:12.533Z,13.10
2023-02-25T02:08:47.581Z,12.50
2023-02-25T02:11:20.657Z,13.80
2023-02-25T02:13:57.857Z,10.50
2023-02-25T02:17:06.092Z,10.60
2023-02-25T02:20:01.045Z,11.00
2023-02-25T02:22:41.433Z,9.90
2023-02-25T02:25:58.250Z,11.40
2023-02-25T02:29:03.005Z,12.10
2023-02-25T02:31:54.307Z,11.70
2023-02-25T02:34:38.011Z,11.60
2023-02-25T02:37:23.214Z,11.70
2023-02-25T02:40:09.565Z,12.80
2023-02-25T02:42:48.708Z,12.20
2023-02-25T02:45:27.074Z,12.40
2023-02-25T02:48:03.805Z,12.60
2023-02-25T02:50:39.333Z,11.60
2023-02-25T02:53:15.665Z,12.20
2023-02-25T02:55:49.993Z,12.40
2023-02-25T02:58:27.067Z,11.10
2023-02-25T03:01:05.110Z,11.40
2023-02-25T03:03:41.917Z,11.40
2023-02-25T03:06:17.190Z,11.10
2023-02-25T03:08:56.203Z,15.70
2023-02-25T03:11:29.079Z,13.40
2023-02-25T03:14:02.538Z,29.60
2023-02-25T03:16:39.762Z,13.00
2023-02-25T03:19:17.385Z,12.10
2023-02-25T03:21:56.185Z,24.40
2023-02-25T03:24:34.192Z,17.90
2023-02-25T03:27:24.283Z,12.00
2023-02-25T03:30:05.087Z,11.90
2023-02-25T03:32:39.009Z,12.40
2023-02-25T03:35:14.383Z,11.60
2023-02-25T03:37:51.337Z,12.40
2023-02-25T03:40:25.667Z,12.60
2023-02-25T03:43:08.278Z,13.00
2023-02-25T03:45:42.637Z,14.90
2023-02-25T03:48:16.705Z,13.00
2023-02-25T03:50:54.337Z,13.50
2023-02-25T03:53:27.007Z,14.90
2023-02-25T03:56:05.541Z,14.30
2023-02-25T03:58:41.175Z,14.40
2023-02-25T04:01:17.284Z,13.50
2023-02-25T04:03:49.841Z,12.60
2023-02-25T04:06:24.956Z,14.20
2023-02-25T04:08:58.393Z,13.40
2023-02-25T04:11:30.582Z,13.60
2023-02-25T04:14:02.766Z,13.40
2023-02-25T04:16:34.951Z,16.40
2023-02-25T04:19:07.650Z,20.90
2023-02-25T04:21:40.946Z,35.20
2023-02-25T04:24:13.243Z,18.80
2023-02-25T04:26:45.365Z,17.30
2023-02-25T04:29:17.605Z,16.30
2023-02-25T04:31:50.052Z,16.40
2023-02-25T04:34:22.772Z,15.30
2023-02-25T04:36:54.971Z,14.90
2023-02-25T04:39:27.225Z,12.00
2023-02-25T04:41:59.778Z,12.60
2023-02-25T04:44:32.314Z,20.60
2023-02-25T04:47:04.773Z,20.30
2023-02-25T04:49:45.293Z,15.10
2023-02-25T04:52:18.116Z,15.80
2023-02-25T04:54:50.566Z,13.30
2023-02-25T04:57:22.877Z,14.50
2023-02-25T04:59:55.323Z,13.10
2023-02-25T05:02:27.595Z,14.50
2023-02-25T05:04:59.774Z,16.00
2023-02-25T05:07:32.041Z,14.80
2023-02-25T05:10:05.050Z,13.70
2023-02-25T05:12:37.448Z,14.30
2023-02-25T05:15:13.041Z,15.00
2023-02-25T05:17:45.199Z,15.20
2023-02-25T05:20:17.267Z,25.50
2023-02-25T05:22:49.482Z,26.20
2023-02-25T05:25:22.307Z,20.40
2023-02-25T05:27:54.374Z,19.30
2023-02-25T05:30:26.593Z,20.60
2023-02-25T05:32:58.860Z,20.90
2023-02-25T05:35:32.640Z,21.80
2023-02-25T05:38:04.659Z,20.30
2023-02-25T05:40:37.288Z,20.20
2023-02-25T05:43:10.094Z,18.30
2023-02-25T05:45:42.366Z,17.00
2023-02-25T05:48:14.536Z,18.00
2023-02-25T05:50:47.215Z,15.00
2023-02-25T05:53:20.150Z,15.10
2023-02-25T05:55:52.292Z,14.80
2023-02-25T05:58:24.691Z,16.10
2023-02-25T06:00:57.062Z,14.20
2023-02-25T06:03:29.422Z,17.10
2023-02-25T06:06:03.753Z,16.10
2023-02-25T06:08:36.231Z,15.20
2023-02-25T06:11:10.164Z,14.60
2023-02-25T06:13:43.048Z,14.10
2023-02-25T06:16:15.912Z,14.10
2023-02-25T06:18:48.676Z,17.60
2023-02-25T06:21:21.143Z,22.70
2023-02-25T06:23:53.646Z,19.80
2023-02-25T06:26:26.172Z,15.70
2023-02-25T06:28:59.032Z,16.10
2023-02-25T06:31:31.232Z,15.00
2023-02-25T06:34:03.449Z,13.10
2023-02-25T06:36:35.736Z,12.10
2023-02-25T06:39:08.156Z,13.30
2023-02-25T06:41:40.591Z,12.70
2023-02-25T06:44:15.539Z,12.00
2023-02-25T06:46:50.789Z,13.20
2023-02-25T06:51:53.594Z,12.40
2023-02-25T06:54:25.675Z,14.40
2023-02-25T06:56:57.958Z,12.60
2023-02-25T06:59:30.179Z,14.30
2023-02-25T07:02:02.326Z,14.40
2023-02-25T07:04:34.445Z,15.00
2023-02-25T07:07:06.717Z,15.80
2023-02-25T07:09:38.834Z,16.10
2023-02-25T07:12:10.989Z,17.80
2023-02-25T07:14:43.167Z,21.50
2023-02-25T07:17:15.293Z,16.10
2023-02-25T07:19:47.459Z,15.40
2023-02-25T07:22:22.219Z,17.90
2023-02-25T07:24:55.400Z,14.90
2023-02-25T07:27:27.790Z,17.30
2023-02-25T07:30:01.574Z,16.10
2023-02-25T07:32:33.841Z,15.10
2023-02-25T07:35:07.232Z,29.30
2023-02-25T07:37:39.431Z,36.00
2023-02-25T07:40:15.821Z,20.50
2023-02-25T07:42:47.965Z,22.10
2023-02-25T07:45:20.415Z,18.50
2023-02-25T07:47:55.358Z,17.40
2023-02-25T07:52:58.050Z,17.90
2023-02-25T07:55:30.322Z,16.40
2023-02-25T07:58:02.511Z,15.10
2023-02-25T08:00:35.647Z,15.20
2023-02-25T08:03:08.071Z,14.30
2023-02-25T08:05:40.831Z,13.90
2023-02-25T08:08:13.397Z,14.60
2023-02-25T08:10:45.551Z,22.50
2023-02-25T08:13:17.906Z,69.10
2023-02-25T08:15:50.154Z,108.60
2023-02-25T08:18:22.500Z,83.60
2023-02-25T08:20:56.115Z,97.90
2023-02-25T08:23:28.671Z,70.90
2023-02-25T08:26:01.466Z,39.20
2023-02-25T08:28:36.959Z,80.00
2023-02-25T08:31:11.919Z,29.30
2023-02-25T08:33:49.812Z,31.60
2023-02-25T08:36:24.508Z,26.00
2023-02-25T08:38:58.497Z,27.80
2023-02-25T08:41:32.217Z,27.20
2023-02-25T08:44:04.502Z,99.30
2023-02-25T08:46:37.297Z,94.10
2023-02-25T08:49:11.136Z,108.90
2023-02-25T08:51:43.403Z,179.60
2023-02-25T08:54:16.289Z,93.10
2023-02-25T08:56:51.047Z,89.80
2023-02-25T08:59:23.166Z,54.50
2023-02-25T09:01:55.355Z,56.30
2023-02-25T09:04:27.605Z,28.20
2023-02-25T09:06:59.999Z,25.10
2023-02-25T09:09:33.680Z,48.20
2023-02-25T09:12:06.200Z,26.60
2023-02-25T09:14:39.263Z,30.20
2023-02-25T09:17:11.823Z,66.10
2023-02-25T09:19:44.068Z,38.70
2023-02-25T09:22:16.286Z,31.50
2023-02-25T09:24:48.503Z,25.20
2023-02-25T09:27:20.674Z,20.90
2023-02-25T09:29:53.558Z,18.60
2023-02-25T09:32:26.632Z,17.70
2023-02-25T09:35:04.524Z,21.20
2023-02-25T09:37:37.002Z,14.20
2023-02-25T09:40:17.245Z,20.90
2023-02-25T09:43:03.174Z,18.60
2023-02-25T09:45:36.831Z,19.70
2023-02-25T09:48:19.473Z,19.20
2023-02-25T09:50:55.449Z,17.70
2023-02-25T09:53:33.761Z,17.90
2023-02-25T09:56:09.463Z,20.60
2023-02-25T09:58:44.630Z,33.80
2023-02-25T10:01:25.086Z,35.70
2023-02-25T10:04:03.248Z,27.70
2023-02-25T10:06:43.699Z,18.90
2023-02-25T10:09:26.491Z,21.00
2023-02-25T10:12:10.199Z,15.90
2023-02-25T10:15:07.299Z,22.70
2023-02-25T10:17:48.199Z,20.20
2023-02-25T10:20:44.460Z,16.00
2023-02-25T10:23:28.820Z,13.90
2023-02-25T10:26:07.398Z,14.40
2023-02-25T10:28:43.271Z,15.40
2023-02-25T10:31:18.778Z,14.60
2023-02-25T10:33:53.839Z,14.60
2023-02-25T10:36:32.177Z,11.80
2023-02-25T10:39:04.606Z,14.90
2023-02-25T10:41:38.510Z,12.00
2023-02-25T10:44:14.263Z,11.20
2023-02-25T10:46:54.237Z,12.80
2023-02-25T10:49:28.220Z,13.70
2023-02-25T10:52:03.367Z,11.30
2023-02-25T10:54:46.384Z,11.50
2023-02-25T10:57:25.985Z,10.70
2023-02-25T11:00:07.340Z,10.70
2023-02-25T11:02:43.609Z,12.30
2023-02-25T11:05:33.843Z,11.30
2023-02-25T11:08:08.191Z,13.80
2023-02-25T11:10:40.365Z,10.80
2023-02-25T11:13:31.500Z,11.20
2023-02-25T11:16:07.683Z,9.50
2023-02-25T11:18:40.699Z,8.30
2023-02-25T11:21:16.333Z,7.10
2023-02-25T11:23:51.079Z,7.10
2023-02-25T11:26:31.538Z,7.70
2023-02-25T11:29:08.009Z,9.40
2023-02-25T11:31:42.479Z,8.90
2023-02-25T11:34:23.914Z,7.70
2023-02-25T11:36:56.082Z,8.30
2023-02-25T11:39:31.014Z,9.70
2023-02-25T11:42:22.082Z,9.60
2023-02-25T11:45:01.969Z,8.20
2023-02-25T11:47:38.543Z,8.80
2023-02-25T11:50:23.977Z,9.30
2023-02-25T11:53:04.598Z,10.10
2023-02-25T11:55:59.180Z,10.30
2023-02-25T11:58:43.203Z,11.10
2023-02-25T12:01:22.566Z,14.10
2023-02-25T12:04:18.982Z,7.00
2023-02-25T12:07:14.017Z,7.30
2023-02-25T12:10:10.315Z,13.90
2023-02-25T12:13:16.606Z,8.90
2023-02-25T12:16:26.210Z,9.00
2023-02-25T12:19:32.655Z,13.60
2023-02-25T12:22:34.107Z,19.20
2023-02-25T12:25:30.239Z,6.70
2023-02-25T12:28:25.546Z,6.50
2023-02-25T12:31:18.174Z,5.80
2023-02-25T12:34:04.632Z,10.80
2023-02-25T12:36:55.891Z,54.00
2023-02-25T12:39:48.223Z,34.70
2023-02-25T12:42:46.136Z,45.40
2023-02-25T12:45:41.426Z,53.10
2023-02-25T12:48:44.729Z,23.30
2023-02-25T12:51:37.929Z,31.40
2023-02-25T12:54:29.264Z,49.50
2023-02-25T12:57:29.723Z,32.40
2023-02-25T13:00:22.629Z,20.20
2023-02-25T13:03:21.396Z,22.70
2023-02-25T13:06:20.898Z,7.70
2023-02-25T13:09:08.514Z,9.40
2023-02-25T13:12:11.074Z,12.80
2023-02-25T13:14:58.055Z,12.50
2023-02-25T13:17:58.950Z,11.70
2023-02-25T13:20:51.750Z,20.10
2023-02-25T13:23:47.443Z,12.80
2023-02-25T13:29:24.453Z,11.70
2023-02-25T13:32:08.296Z,8.50
2023-02-25T13:34:48.535Z,12.10
2023-02-25T13:37:42.860Z,13.00
2023-02-25T13:40:50.951Z,12.10
2023-02-25T13:43:48.651Z,12.30
2023-02-25T13:46:50.889Z,21.00
2023-02-25T13:49:52.571Z,19.70
2023-02-25T13:52:29.797Z,18.60
2023-02-25T13:55:36.049Z,11.40
2023-02-25T13:58:37.442Z,11.60
2023-02-25T14:01:31.348Z,14.40
2023-02-25T14:04:41.038Z,19.90
2023-02-25T14:07:50.281Z,35.90
2023-02-25T14:10:43.321Z,24.80
2023-02-25T14:13:43.712Z,41.10
2023-02-25T14:16:41.853Z,27.40
2023-02-25T14:19:26.442Z,13.90
2023-02-25T14:22:31.352Z,9.00
2023-02-25T14:25:17.864Z,42.30
2023-02-25T14:28:01.435Z,17.60
2023-02-25T14:30:44.780Z,26.70
2023-02-25T14:33:37.120Z,29.60
2023-02-25T14:36:34.990Z,34.50
2023-02-25T14:39:31.873Z,35.10
2023-02-25T14:42:27.193Z,14.20
2023-02-25T14:45:06.409Z,29.00
2023-02-25T14:47:46.740Z,25.50
2023-02-25T14:50:25.456Z,34.20
2023-02-25T14:53:46.470Z,37.80
2023-02-25T14:56:48.967Z,26.20
2023-02-25T14:59:48.281Z,41.60
2023-02-25T15:02:42.366Z,39.40
2023-02-25T15:05:39.207Z,24.70
2023-02-25T15:08:26.278Z,54.10
2023-02-25T15:11:26.965Z,38.50
2023-02-25T15:14:35.893Z,17.20
2023-02-25T15:21:00.645Z,22.00
2023-02-25T15:24:46.459Z,22.10
2023-02-25T15:27:48.520Z,36.90
2023-02-25T15:30:24.798Z,37.50
2023-02-25T15:33:25.891Z,29.80
2023-02-25T15:36:03.089Z,35.80
2023-02-25T15:38:50.288Z,30.00
2023-02-25T15:41:46.453Z,43.30
2023-02-25T15:44:41.805Z,18.00
2023-02-25T15:47:31.964Z,24.00
2023-02-25T15:50:05.569Z,41.00
2023-02-25T15:52:59.442Z,15.90
2023-02-25T15:55:44.509Z,35.30
2023-02-25T15:58:46.578Z,49.70
2023-02-25T16:01:39.590Z,49.60
2023-02-25T16:04:45.637Z,30.00
2023-02-25T16:07:21.171Z,58.50
2023-02-25T16:09:59.225Z,39.50
2023-02-25T16:12:31.831Z,38.40
2023-02-25T16:15:05.255Z,42.20
2023-02-25T16:17:38.544Z,37.80
2023-02-25T16:20:21.448Z,24.00
2023-02-25T16:22:58.040Z,18.40
2023-02-25T16:25:38.242Z,13.60
2023-02-25T16:28:20.944Z,10.60
2023-02-25T16:31:01.725Z,12.10
2023-02-25T16:33:43.189Z,13.10
2023-02-25T16:36:22.885Z,10.20
2023-02-25T16:38:59.265Z,15.10
2023-02-25T16:41:38.056Z,19.40
2023-02-25T16:44:18.231Z,19.70
2023-02-25T16:46:54.883Z,19.20
2023-02-25T16:49:32.773Z,15.70
2023-02-25T16:52:05.590Z,21.70
2023-02-25T16:54:41.087Z,15.30
2023-02-25T16:57:22.578Z,19.50
2023-02-25T17:00:13.795Z,17.40
2023-02-25T17:02:51.340Z,22.30
2023-02-25T17:05:33.570Z,24.00
2023-02-25T17:08:15.281Z,14.40
2023-02-25T17:10:50.859Z,24.20
2023-02-25T17:13:27.331Z,20.40
2023-02-25T17:16:00.876Z,28.20
2023-02-25T17:18:35.914Z,26.30
2023-02-25T17:21:14.858Z,25.90
2023-02-25T17:23:47.823Z,18.20
2023-02-25T17:26:21.579Z,15.60
2023-02-25T17:28:56.722Z,10.70
2023-02-25T17:34:03.671Z,8.70
2023-02-25T17:36:39.705Z,12.00
2023-02-25T17:39:16.711Z,13.00
2023-02-25T17:41:49.991Z,15.70
2023-02-25T17:44:46.723Z,11.40
2023-02-25T17:47:24.997Z,14.90
2023-02-25T17:49:59.148Z,17.50
2023-02-25T17:52:33.702Z,18.00
2023-02-25T17:55:22.149Z,14.80
2023-02-25T17:57:58.954Z,15.50
2023-02-25T18:00:33.344Z,14.50
2023-02-25T18:03:20.238Z,12.90
2023-02-25T18:05:54.582Z,18.20
2023-02-25T18:08:27.745Z,19.30
2023-02-25T18:11:07.200Z,21.50
2023-02-25T18:13:39.894Z,16.70
2023-02-25T18:16:28.736Z,13.00
2023-02-25T18:19:01.544Z,25.00
2023-02-25T18:21:40.440Z,18.50
2023-02-25T18:24:25.579Z,19.20
2023-02-25T18:27:20.434Z,17.40
2023-02-25T18:29:52.808Z,10.80
2023-02-25T18:32:25.173Z,17.60
2023-02-25T18:34:57.399Z,16.50
2023-02-25T18:37:32.891Z,15.30
2023-02-25T18:40:05.660Z,30.20
2023-02-25T18:42:37.832Z,18.50
2023-02-25T18:45:21.155Z,54.80
2023-02-25T18:47:54.384Z,24.80
2023-02-25T18:50:29.906Z,16.50
2023-02-25T18:53:02.609Z,22.30
2023-02-25T18:55:36.009Z,21.80
2023-02-25T18:58:12.501Z,27.50
2023-02-25T19:00:47.154Z,25.40
2023-02-25T19:03:25.108Z,19.70
2023-02-25T19:05:57.512Z,20.00
2023-02-25T19:08:30.140Z,28.70
2023-02-25T19:11:02.467Z,23.80
2023-02-25T19:13:38.154Z,25.90
2023-02-25T19:16:11.794Z,15.70
2023-02-25T19:18:44.018Z,21.00
2023-02-25T19:21:18.914Z,16.60
2023-02-25T19:23:53.959Z,12.40
2023-02-25T19:26:26.567Z,12.20
2023-02-25T19:28:58.985Z,17.40
2023-02-25T19:31:31.233Z,11.50
2023-02-25T19:34:03.655Z,6.40
2023-02-25T19:36:35.900Z,7.20
2023-02-25T19:39:08.151Z,5.70
2023-02-25T19:41:40.596Z,12.60
2023-02-25T19:44:12.969Z,16.30
2023-02-25T19:46:45.365Z,10.80
2023-02-25T19:49:17.660Z,14.40
2023-02-25T19:51:49.900Z,17.10
2023-02-25T19:54:25.071Z,10.90
2023-02-25T19:56:58.673Z,15.10
2023-02-25T19:59:32.142Z,14.00
2023-02-25T20:02:04.413Z,12.20
2023-02-25T20:04:36.932Z,13.80
2023-02-25T20:07:09.590Z,13.40
2023-02-25T20:09:42.019Z,7.30
2023-02-25T20:12:14.181Z,6.00
2023-02-25T20:14:46.328Z,9.30
2023-02-25T20:17:18.622Z,6.10
2023-02-25T20:19:50.838Z,9.20
2023-02-25T20:22:23.922Z,6.30
2023-02-25T20:24:56.102Z,6.60
2023-02-25T20:27:29.528Z,3.90
2023-02-25T20:30:01.913Z,6.00
2023-02-25T20:32:34.221Z,9.20
2023-02-25T20:35:08.027Z,26.40
2023-02-25T20:37:44.741Z,16.50
2023-02-25T20:40:17.888Z,35.40
2023-02-25T20:42:50.713Z,44.80
2023-02-25T20:45:24.081Z,44.40
2023-02-25T20:47:56.891Z,40.40
2023-02-25T20:50:31.359Z,41.50
2023-02-25T20:53:04.010Z,41.80
2023-02-25T20:55:36.110Z,89.80
2023-02-25T20:58:08.341Z,72.30
2023-02-25T21:00:40.413Z,43.10
2023-02-25T21:03:12.704Z,60.00
2023-02-25T21:05:44.974Z,56.50
2023-02-25T21:08:17.221Z,77.30
2023-02-25T21:10:50.038Z,49.60
2023-02-25T21:13:22.251Z,57.30
2023-02-25T21:15:58.761Z,32.80
2023-02-25T21:18:31.431Z,27.70
2023-02-25T21:21:07.702Z,30.60
2023-02-25T21:23:40.634Z,78.20
2023-02-25T21:26:14.815Z,153.40
2023-02-25T21:28:47.185Z,51.40
2023-02-25T21:31:19.628Z,46.00
2023-02-25T21:33:51.831Z,27.90
2023-02-25T21:36:24.226Z,20.80
2023-02-25T21:38:56.859Z,15.10
2023-02-25T21:41:29.132Z,18.20
2023-02-25T21:44:01.383Z,16.10
2023-02-25T21:46:33.637Z,74.80
2023-02-25T21:49:05.834Z,38.60
2023-02-25T21:51:40.353Z,26.40
2023-02-25T21:54:13.422Z,15.10
2023-02-25T21:56:45.853Z,13.40
2023-02-25T21:59:18.816Z,12.20
2023-02-25T22:01:51.139Z,8.10
2023-02-25T22:04:23.414Z,9.80
2023-02-25T22:06:55.804Z,9.50
2023-02-25T22:09:28.127Z,13.40
2023-02-25T22:12:00.374Z,10.10
2023-02-25T22:14:32.809Z,9.50
2023-02-25T22:17:05.046Z,4.80
2023-02-25T22:19:37.339Z,4.60
2023-02-25T22:22:09.690Z,7.20
2023-02-25T22:24:41.955Z,17.10
2023-02-25T22:27:14.330Z,7.30
2023-02-25T22:29:46.524Z,34.20
2023-02-25T22:32:18.917Z,42.20
2023-02-25T22:34:51.152Z,12.80
2023-02-25T22:37:23.287Z,8.10
2023-02-25T22:39:55.433Z,7.30
2023-02-25T22:42:27.865Z,6.70
2023-02-25T22:45:00.061Z,9.20
2023-02-25T22:47:32.244Z,6.90
2023-02-25T22:50:04.760Z,4.50
2023-02-25T22:52:37.066Z,5.60
2023-02-25T22:55:11.916Z,13.70
2023-02-25T22:57:44.240Z,10.30
2023-02-25T23:00:19.699Z,13.30
2023-02-25T23:05:23.016Z,12.60
2023-02-25T23:07:55.197Z,7.70
2023-02-25T23:10:28.539Z,10.80
2023-02-25T23:13:02.332Z,15.80
2023-02-25T23:15:34.950Z,8.10
2023-02-25T23:18:09.964Z,11.40
2023-02-25T23:23:17.762Z,8.80
2023-02-25T23:25:54.767Z,6.50
2023-02-25T23:28:27.674Z,5.10
2023-02-25T23:31:00.152Z,5.30
2023-02-25T23:33:33.134Z,9.30
2023-02-25T23:36:08.267Z,4.60
2023-02-25T23:38:40.492Z,4.80
2023-02-25T23:41:12.758Z,4.00
2023-02-25T23:43:44.954Z,4.10
2023-02-25T23:46:17.133Z,3.60
2023-02-25T23:48:49.837Z,4.20
2023-02-25T23:51:22.472Z,5.40
2023-02-25T23:53:56.806Z,5.20
2023-02-25T23:56:30.917Z,4.80
2023-02-25T23:59:03.309Z,4.00
